createdAt,value
2023-02-02T00:00:34.250Z,0.00
2023-02-02T00:01:34.169Z,0.00
2023-02-02T00:02:34.240Z,0.00
2023-02-02T00:03:34.169Z,0.00
2023-02-02T00:04:34.067Z,0.00
2023-02-02T00:05:34.168Z,0.00
2023-02-02T00:06:34.119Z,0.00
2023-02-02T00:07:34.149Z,0.00
2023-02-02T00:08:33.873Z,0.00
2023-02-02T00:09:34.077Z,0.00
2023-02-02T00:10:34.063Z,0.00
2023-02-02T00:11:34.160Z,0.00
2023-02-02T00:12:34.099Z,0.00
2023-02-02T00:13:34.031Z,0.00
2023-02-02T00:14:33.818Z,0.00
2023-02-02T00:15:34.030Z,0.00
2023-02-02T00:16:34.163Z,0.00
2023-02-02T00:17:33.980Z,0.00
2023-02-02T00:18:33.996Z,0.00
2023-02-02T00:19:34.012Z,0.00
2023-02-02T00:20:33.972Z,0.00
2023-02-02T00:21:33.927Z,0.00
2023-02-02T00:22:34.032Z,0.00
2023-02-02T00:23:33.956Z,0.00
2023-02-02T00:24:33.825Z,0.00
2023-02-02T00:25:33.824Z,0.00
2023-02-02T00:26:33.737Z,0.00
2023-02-02T00:27:33.833Z,0.00
2023-02-02T00:28:33.838Z,0.00
2023-02-02T00:29:33.854Z,0.00
2023-02-02T00:30:33.883Z,0.00
2023-02-02T00:31:34.018Z,0.00
2023-02-02T00:32:33.763Z,0.00
2023-02-02T00:33:33.898Z,0.00
2023-02-02T00:34:33.793Z,0.00
2023-02-02T00:35:33.733Z,0.00
2023-02-02T00:36:33.715Z,0.00
2023-02-02T00:37:33.719Z,0.00
2023-02-02T00:38:33.733Z,0.00
2023-02-02T00:39:33.798Z,0.00
2023-02-02T00:40:33.708Z,0.00
2023-02-02T00:41:33.703Z,0.00
2023-02-02T00:42:33.783Z,0.00
2023-02-02T00:43:33.712Z,0.00
2023-02-02T00:44:33.707Z,0.00
2023-02-02T00:45:33.651Z,0.00
2023-02-02T00:46:33.718Z,0.00
2023-02-02T00:47:33.636Z,0.00
2023-02-02T00:48:33.615Z,0.00
2023-02-02T00:49:33.609Z,0.00
2023-02-02T00:50:33.692Z,0.00
2023-02-02T00:51:33.608Z,0.00
2023-02-02T00:52:33.587Z,0.00
2023-02-02T00:53:33.574Z,0.00
2023-02-02T00:54:33.570Z,0.00
2023-02-02T00:55:33.654Z,0.00
2023-02-02T00:56:33.499Z,0.00
2023-02-02T00:57:33.574Z,0.00
2023-02-02T00:58:33.537Z,0.00
2023-02-02T00:59:33.525Z,0.00
2023-02-02T01:00:33.323Z,0.00
2023-02-02T01:01:33.594Z,0.00
2023-02-02T01:02:33.548Z,0.00
2023-02-02T01:03:33.503Z,0.00
2023-02-02T01:04:33.530Z,0.00
2023-02-02T01:05:33.470Z,0.00
2023-02-02T01:06:33.499Z,0.00
2023-02-02T01:07:33.538Z,0.00
2023-02-02T01:08:33.456Z,0.00
2023-02-02T01:09:33.453Z,0.00
2023-02-02T01:10:33.442Z,0.00
2023-02-02T01:11:33.362Z,0.00
2023-02-02T01:12:33.523Z,0.00
2023-02-02T01:13:33.525Z,0.00
2023-02-02T01:14:33.355Z,0.00
2023-02-02T01:15:33.424Z,0.00
2023-02-02T01:16:33.394Z,0.00
2023-02-02T01:17:33.321Z,0.00
2023-02-02T01:18:33.380Z,0.00
2023-02-02T01:19:33.375Z,0.00
2023-02-02T01:20:33.357Z,0.00
2023-02-02T01:21:33.344Z,0.00
2023-02-02T01:22:33.411Z,0.00
2023-02-02T01:23:33.331Z,0.00
2023-02-02T01:24:33.328Z,0.00
2023-02-02T01:25:33.302Z,0.00
2023-02-02T01:26:33.318Z,0.00
2023-02-02T01:27:33.280Z,0.00
2023-02-02T01:28:33.343Z,0.00
2023-02-02T01:29:33.324Z,0.00
2023-02-02T01:30:33.300Z,0.00
2023-02-02T01:31:33.256Z,0.00
2023-02-02T01:32:33.226Z,0.00
2023-02-02T01:33:33.305Z,0.00
2023-02-02T01:34:32.981Z,0.00
2023-02-02T01:35:33.182Z,0.00
2023-02-02T01:36:33.202Z,0.00
2023-02-02T01:37:33.215Z,0.00
2023-02-02T01:38:33.223Z,0.00
2023-02-02T01:39:34.312Z,0.00
2023-02-02T01:40:33.161Z,0.00
2023-02-02T01:41:33.172Z,0.00
2023-02-02T01:42:33.091Z,0.00
2023-02-02T01:43:33.179Z,0.00
2023-02-02T01:44:33.106Z,0.00
2023-02-02T01:45:33.135Z,0.00
2023-02-02T01:46:33.083Z,0.00
2023-02-02T01:47:33.070Z,0.00
2023-02-02T01:48:33.134Z,0.00
2023-02-02T01:49:33.125Z,0.00
2023-02-02T01:50:33.031Z,0.00
2023-02-02T01:51:33.013Z,0.00
2023-02-02T01:52:33.010Z,0.00
2023-02-02T01:53:32.996Z,0.00
2023-02-02T01:54:33.069Z,0.00
2023-02-02T01:55:33.034Z,0.00
2023-02-02T01:56:33.083Z,0.00
2023-02-02T01:57:32.985Z,0.00
2023-02-02T01:58:32.968Z,0.00
2023-02-02T01:59:32.950Z,0.00
2023-02-02T02:00:33.014Z,0.00
2023-02-02T02:01:33.031Z,0.00
2023-02-02T02:02:33.003Z,0.00
2023-02-02T02:03:32.905Z,0.00
2023-02-02T02:04:32.917Z,0.00
2023-02-02T02:05:32.952Z,0.00
2023-02-02T02:06:32.837Z,0.00
2023-02-02T02:07:32.857Z,0.00
2023-02-02T02:08:32.886Z,0.00
2023-02-02T02:09:32.906Z,0.00
2023-02-02T02:10:32.794Z,0.00
2023-02-02T02:11:32.807Z,0.00
2023-02-02T02:12:32.791Z,0.00
2023-02-02T02:13:32.921Z,0.00
2023-02-02T02:14:32.804Z,0.00
2023-02-02T02:15:32.788Z,0.00
2023-02-02T02:16:32.949Z,0.00
2023-02-02T02:17:32.781Z,0.00
2023-02-02T02:18:32.765Z,0.00
2023-02-02T02:19:32.756Z,0.00
2023-02-02T02:20:32.673Z,0.00
2023-02-02T02:21:32.679Z,0.00
2023-02-02T02:22:32.752Z,0.00
2023-02-02T02:23:32.670Z,0.00
2023-02-02T02:24:32.653Z,0.00
2023-02-02T02:25:32.631Z,0.00
2023-02-02T02:26:32.670Z,0.00
2023-02-02T02:27:32.702Z,0.00
2023-02-02T02:28:32.625Z,0.00
2023-02-02T02:29:32.628Z,0.00
2023-02-02T02:30:32.860Z,0.00
2023-02-02T02:31:32.636Z,0.00
2023-02-02T02:32:32.659Z,0.00
2023-02-02T02:33:32.586Z,0.00
2023-02-02T02:34:32.606Z,0.00
2023-02-02T02:35:32.549Z,0.00
2023-02-02T02:36:32.551Z,0.00
2023-02-02T02:37:32.633Z,0.00
2023-02-02T02:38:32.569Z,0.00
2023-02-02T02:39:32.672Z,0.00
2023-02-02T02:40:32.534Z,0.00
2023-02-02T02:41:32.558Z,0.00
2023-02-02T02:42:32.565Z,0.00
2023-02-02T02:43:32.491Z,0.00
2023-02-02T02:44:32.573Z,0.00
2023-02-02T02:45:32.483Z,0.00
2023-02-02T02:46:32.384Z,0.00
2023-02-02T02:47:32.461Z,0.00
2023-02-02T02:48:32.444Z,0.00
2023-02-02T02:49:32.426Z,0.00
2023-02-02T02:50:32.489Z,0.00
2023-02-02T02:51:32.486Z,0.00
2023-02-02T02:52:32.403Z,0.00
2023-02-02T02:53:32.398Z,0.00
2023-02-02T02:54:32.474Z,0.00
2023-02-02T02:55:32.426Z,0.00
2023-02-02T02:56:32.443Z,0.00
2023-02-02T02:57:32.363Z,0.00
2023-02-02T02:58:32.354Z,0.00
2023-02-02T02:59:32.431Z,0.00
2023-02-02T03:00:32.354Z,0.00
2023-02-02T03:01:32.420Z,0.00
2023-02-02T03:02:32.312Z,0.00
2023-02-02T03:03:32.293Z,0.00
2023-02-02T03:04:32.305Z,0.00
2023-02-02T03:05:32.406Z,0.00
2023-02-02T03:06:32.308Z,0.00
2023-02-02T03:07:32.303Z,0.00
2023-02-02T03:08:32.374Z,0.00
2023-02-02T03:09:32.224Z,0.00
2023-02-02T03:10:32.220Z,0.00
2023-02-02T03:11:32.276Z,0.00
2023-02-02T03:12:32.274Z,0.00
2023-02-02T03:13:32.272Z,0.00
2023-02-02T03:14:32.242Z,0.00
2023-02-02T03:15:32.232Z,0.00
2023-02-02T03:16:32.244Z,0.00
2023-02-02T03:17:32.179Z,0.00
2023-02-02T03:18:32.228Z,0.00
2023-02-02T03:19:32.146Z,0.00
2023-02-02T03:20:32.172Z,0.00
2023-02-02T03:21:32.048Z,0.00
2023-02-02T03:22:32.070Z,0.00
2023-02-02T03:23:32.089Z,0.00
2023-02-02T03:24:32.105Z,0.00
2023-02-02T03:25:32.110Z,0.00
2023-02-02T03:26:32.165Z,0.00
2023-02-02T03:27:32.111Z,0.00
2023-02-02T03:28:32.107Z,0.00
2023-02-02T03:29:32.113Z,0.00
2023-02-02T03:30:32.013Z,0.00
2023-02-02T03:31:32.084Z,0.00
2023-02-02T03:32:32.003Z,0.00
2023-02-02T03:33:32.141Z,0.00
2023-02-02T03:34:31.823Z,0.00
2023-02-02T03:35:31.988Z,0.00
2023-02-02T03:36:32.066Z,0.00
2023-02-02T03:37:31.912Z,0.00
2023-02-02T03:38:31.951Z,0.00
2023-02-02T03:39:32.029Z,0.00
2023-02-02T03:40:31.954Z,0.00
2023-02-02T03:41:31.891Z,0.00
2023-02-02T03:42:31.905Z,0.00
2023-02-02T03:43:31.919Z,0.00
2023-02-02T03:44:31.994Z,0.00
2023-02-02T03:45:31.899Z,0.00
2023-02-02T03:46:31.727Z,0.00
2023-02-02T03:47:31.687Z,0.00
2023-02-02T03:48:31.859Z,0.00
2023-02-02T03:49:31.936Z,0.00
2023-02-02T03:50:31.854Z,0.00
2023-02-02T03:51:31.852Z,0.00
2023-02-02T03:52:31.850Z,0.00
2023-02-02T03:53:31.850Z,0.00
2023-02-02T03:54:31.877Z,0.00
2023-02-02T03:55:31.835Z,0.00
2023-02-02T03:56:31.855Z,0.00
2023-02-02T03:57:31.703Z,0.00
2023-02-02T03:58:31.666Z,0.00
2023-02-02T03:59:31.867Z,0.00
2023-02-02T04:00:31.721Z,0.00
2023-02-02T04:01:31.746Z,0.00
2023-02-02T04:02:31.690Z,0.00
2023-02-02T04:03:31.689Z,0.00
2023-02-02T04:04:31.529Z,0.00
2023-02-02T04:05:31.727Z,0.00
2023-02-02T04:06:31.522Z,0.00
2023-02-02T04:07:31.641Z,0.00
2023-02-02T04:08:31.625Z,0.00
2023-02-02T04:09:31.620Z,0.00
2023-02-02T04:10:31.730Z,0.00
2023-02-02T04:11:31.614Z,0.00
2023-02-02T04:12:31.625Z,0.00
2023-02-02T04:13:31.558Z,0.00
2023-02-02T04:14:31.556Z,0.00
2023-02-02T04:15:31.568Z,0.00
2023-02-02T04:16:31.697Z,0.00
2023-02-02T04:17:31.524Z,0.00
2023-02-02T04:18:31.585Z,0.00
2023-02-02T04:19:31.501Z,0.00
2023-02-02T04:20:31.344Z,0.00
2023-02-02T04:21:31.474Z,0.00
2023-02-02T04:22:31.398Z,0.00
2023-02-02T04:23:31.564Z,0.00
2023-02-02T04:24:31.556Z,0.00
2023-02-02T04:25:31.468Z,0.00
2023-02-02T04:26:31.558Z,0.00
2023-02-02T04:27:31.403Z,0.00
2023-02-02T04:28:31.422Z,0.00
2023-02-02T04:29:31.448Z,0.00
2023-02-02T04:30:31.267Z,0.00
2023-02-02T04:31:31.440Z,0.00
2023-02-02T04:32:31.471Z,0.00
2023-02-02T04:33:31.473Z,0.00
2023-02-02T04:34:31.487Z,0.00
2023-02-02T04:35:31.505Z,0.00
2023-02-02T04:36:31.364Z,0.00
2023-02-02T04:37:31.279Z,0.00
2023-02-02T04:38:31.413Z,0.00
2023-02-02T04:39:31.161Z,0.00
2023-02-02T04:40:31.228Z,0.00
2023-02-02T04:41:31.376Z,0.00
2023-02-02T04:42:31.132Z,0.00
2023-02-02T04:43:31.363Z,0.00
2023-02-02T04:44:31.251Z,0.00
2023-02-02T04:45:31.169Z,0.00
2023-02-02T04:46:31.063Z,0.00
2023-02-02T04:47:31.084Z,0.00
2023-02-02T04:48:31.200Z,0.00
2023-02-02T04:49:31.344Z,0.00
2023-02-02T04:50:31.220Z,0.00
2023-02-02T04:51:31.216Z,0.00
2023-02-02T04:52:31.248Z,0.00
2023-02-02T04:53:31.151Z,0.00
2023-02-02T04:54:31.189Z,0.00
2023-02-02T04:55:31.122Z,0.00
2023-02-02T04:56:31.215Z,0.00
2023-02-02T04:57:31.230Z,0.00
2023-02-02T04:58:30.947Z,0.00
2023-02-02T04:59:30.970Z,0.00
2023-02-02T05:00:31.113Z,0.00
2023-02-02T05:01:31.159Z,0.00
2023-02-02T05:02:31.065Z,0.00
2023-02-02T05:03:31.124Z,0.00
2023-02-02T05:04:31.122Z,0.00
2023-02-02T05:05:31.084Z,0.00
2023-02-02T05:06:31.093Z,0.00
2023-02-02T05:07:30.987Z,1.00
2023-02-02T05:08:31.015Z,0.00
2023-02-02T05:09:30.953Z,1.00
2023-02-02T05:10:30.990Z,0.00
2023-02-02T05:11:31.121Z,0.00
2023-02-02T05:12:30.972Z,0.00
2023-02-02T05:13:30.938Z,0.00
2023-02-02T05:14:30.989Z,0.00
2023-02-02T05:15:31.004Z,0.00
2023-02-02T05:16:30.983Z,0.00
2023-02-02T05:17:31.071Z,0.00
2023-02-02T05:18:30.933Z,0.00
2023-02-02T05:19:30.958Z,0.00
2023-02-02T05:20:30.973Z,0.00
2023-02-02T05:21:30.911Z,0.00
2023-02-02T05:22:30.779Z,0.00
2023-02-02T05:23:30.730Z,0.00
2023-02-02T05:24:30.946Z,0.00
2023-02-02T05:25:30.904Z,0.00
2023-02-02T05:26:30.885Z,0.00
2023-02-02T05:27:30.880Z,0.00
2023-02-02T05:28:30.745Z,0.00
2023-02-02T05:29:30.926Z,0.00
2023-02-02T05:30:33.193Z,0.00
2023-02-02T05:31:30.779Z,0.00
2023-02-02T05:32:30.765Z,0.00
2023-02-02T05:33:30.795Z,0.00
2023-02-02T05:34:30.620Z,0.00
2023-02-02T05:35:30.737Z,0.00
2023-02-02T05:36:30.760Z,0.00
2023-02-02T05:37:30.708Z,0.00
2023-02-02T05:38:30.750Z,0.00
2023-02-02T05:39:30.635Z,1.00
2023-02-02T05:40:30.527Z,0.00
2023-02-02T05:41:30.648Z,0.00
2023-02-02T05:42:30.700Z,0.00
2023-02-02T05:43:30.658Z,0.00
2023-02-02T05:44:30.785Z,0.00
2023-02-02T05:45:30.674Z,0.00
2023-02-02T05:46:30.621Z,0.00
2023-02-02T05:47:30.656Z,0.00
2023-02-02T05:48:30.599Z,0.00
2023-02-02T05:49:30.630Z,0.00
2023-02-02T05:50:30.738Z,0.00
2023-02-02T05:51:30.609Z,0.00
2023-02-02T05:52:30.647Z,0.00
2023-02-02T05:53:30.548Z,0.00
2023-02-02T05:54:30.385Z,1.00
2023-02-02T05:55:30.368Z,0.00
2023-02-02T05:56:30.374Z,0.00
2023-02-02T05:57:30.411Z,0.00
2023-02-02T05:58:30.333Z,0.00
2023-02-02T05:59:30.309Z,0.00
2023-02-02T06:00:30.310Z,0.00
2023-02-02T06:01:30.550Z,0.00
2023-02-02T06:02:30.288Z,0.00
2023-02-02T06:03:30.556Z,0.00
2023-02-02T06:04:30.428Z,0.00
2023-02-02T06:05:30.378Z,0.00
2023-02-02T06:06:30.474Z,0.00
2023-02-02T06:07:30.293Z,0.00
2023-02-02T06:08:30.438Z,0.00
2023-02-02T06:09:30.448Z,0.00
2023-02-02T06:10:30.348Z,0.00
2023-02-02T06:11:30.477Z,0.00
2023-02-02T06:12:30.392Z,0.00
2023-02-02T06:13:30.331Z,0.00
2023-02-02T06:14:30.364Z,0.00
2023-02-02T06:15:30.351Z,0.00
2023-02-02T06:16:30.217Z,0.00
2023-02-02T06:17:30.425Z,0.00
2023-02-02T06:18:30.542Z,0.00
2023-02-02T06:19:30.282Z,0.00
2023-02-02T06:20:30.306Z,0.00
2023-02-02T06:21:30.339Z,0.00
2023-02-02T06:22:30.084Z,0.00
2023-02-02T06:23:30.402Z,0.00
2023-02-02T06:24:30.265Z,0.00
2023-02-02T06:25:30.282Z,0.00
2023-02-02T06:26:30.266Z,0.00
2023-02-02T06:27:30.254Z,0.00
2023-02-02T06:28:31.069Z,0.00
2023-02-02T06:29:30.288Z,0.00
2023-02-02T06:30:30.286Z,0.00
2023-02-02T06:31:30.271Z,0.00
2023-02-02T06:32:30.195Z,0.00
2023-02-02T06:33:30.267Z,0.00
2023-02-02T06:34:30.205Z,1.00
2023-02-02T06:35:29.897Z,1.00
2023-02-02T06:36:29.916Z,1.00
2023-02-02T06:37:30.812Z,1.00
2023-02-02T06:38:30.080Z,1.00
2023-02-02T06:39:30.165Z,1.00
2023-02-02T06:40:29.949Z,2.00
2023-02-02T06:41:29.986Z,0.00
2023-02-02T06:42:29.987Z,2.00
2023-02-02T06:43:29.868Z,2.00
2023-02-02T06:44:30.032Z,2.00
2023-02-02T06:45:30.051Z,3.00
2023-02-02T06:46:29.972Z,1.00
2023-02-02T06:47:29.938Z,1.00
2023-02-02T06:48:29.940Z,2.00
2023-02-02T06:49:30.082Z,2.00
2023-02-02T06:50:29.973Z,4.00
2023-02-02T06:51:29.886Z,6.00
2023-02-02T06:52:29.896Z,8.00
2023-02-02T06:53:29.925Z,7.00
2023-02-02T06:54:29.929Z,9.00
2023-02-02T06:55:29.852Z,10.00
2023-02-02T06:56:29.848Z,10.00
2023-02-02T06:57:29.860Z,11.00
2023-02-02T06:58:29.874Z,11.00
2023-02-02T06:59:29.801Z,11.00
2023-02-02T07:00:29.930Z,14.00
2023-02-02T07:01:29.763Z,16.00
2023-02-02T07:02:29.967Z,19.00
2023-02-02T07:03:29.789Z,23.00
2023-02-02T07:04:29.684Z,26.00
2023-02-02T07:05:30.878Z,26.00
2023-02-02T07:06:29.735Z,31.00
2023-02-02T07:07:29.717Z,33.00
2023-02-02T07:08:29.772Z,36.00
2023-02-02T07:09:29.742Z,44.00
2023-02-02T07:11:12.943Z,50.00
2023-02-02T07:11:29.790Z,46.00
2023-02-02T07:12:29.675Z,47.00
2023-02-02T07:13:29.651Z,48.00
2023-02-02T07:14:29.707Z,52.00
2023-02-02T07:15:29.562Z,56.00
2023-02-02T07:16:29.596Z,58.00
2023-02-02T07:17:29.500Z,61.00
2023-02-02T07:18:29.484Z,69.00
2023-02-02T07:19:29.472Z,73.00
2023-02-02T07:20:29.686Z,82.00
2023-02-02T07:21:29.587Z,86.00
2023-02-02T07:22:29.586Z,85.00
2023-02-02T07:23:29.693Z,79.00
2023-02-02T07:24:29.397Z,73.00
2023-02-02T07:25:29.494Z,80.00
2023-02-02T07:26:29.531Z,90.00
2023-02-02T07:27:29.518Z,99.00
2023-02-02T07:28:29.534Z,107.00
2023-02-02T07:29:29.625Z,131.00
2023-02-02T07:30:29.589Z,129.00
2023-02-02T07:31:29.584Z,141.00
2023-02-02T07:32:29.505Z,151.00
2023-02-02T07:33:29.592Z,171.00
2023-02-02T07:34:29.344Z,166.00
2023-02-02T07:35:29.466Z,166.00
2023-02-02T07:36:29.465Z,166.00
2023-02-02T07:37:29.458Z,178.00
2023-02-02T07:38:29.480Z,179.00
2023-02-02T07:39:29.312Z,167.00
2023-02-02T07:40:29.455Z,187.00
2023-02-02T07:41:29.519Z,196.00
2023-02-02T07:42:29.448Z,196.00
2023-02-02T07:43:29.444Z,202.00
2023-02-02T07:44:29.426Z,215.00
2023-02-02T07:45:29.501Z,205.00
2023-02-02T07:46:29.550Z,207.00
2023-02-02T07:47:29.354Z,232.00
2023-02-02T07:48:29.364Z,254.00
2023-02-02T07:49:29.362Z,252.00
2023-02-02T07:50:29.363Z,256.00
2023-02-02T07:51:29.349Z,271.00
2023-02-02T07:52:29.410Z,281.00
2023-02-02T07:53:29.314Z,295.00
2023-02-02T07:54:29.277Z,303.00
2023-02-02T07:55:29.586Z,325.00
2023-02-02T07:56:29.389Z,341.00
2023-02-02T07:57:29.281Z,337.00
2023-02-02T07:58:29.041Z,341.00
2023-02-02T07:59:32.123Z,344.00
2023-02-02T08:00:29.242Z,350.00
2023-02-02T08:01:29.313Z,362.00
2023-02-02T08:02:29.258Z,370.00
2023-02-02T08:03:29.167Z,384.00
2023-02-02T08:04:29.196Z,392.00
2023-02-02T08:05:29.372Z,402.00
2023-02-02T08:06:29.270Z,413.00
2023-02-02T08:07:29.143Z,421.00
2023-02-02T08:08:29.119Z,436.00
2023-02-02T08:09:29.109Z,449.00
2023-02-02T08:10:29.103Z,470.00
2023-02-02T08:11:29.233Z,510.00
2023-02-02T08:12:29.134Z,524.00
2023-02-02T08:13:29.115Z,510.00
2023-02-02T08:14:29.084Z,513.00
2023-02-02T08:15:29.059Z,537.00
2023-02-02T08:16:29.059Z,506.00
2023-02-02T08:17:29.163Z,505.00
2023-02-02T08:18:29.068Z,505.00
2023-02-02T08:19:29.135Z,528.00
2023-02-02T08:20:29.128Z,554.00
2023-02-02T08:21:29.056Z,551.00
2023-02-02T08:22:28.776Z,536.00
2023-02-02T08:23:28.958Z,523.00
2023-02-02T08:24:29.023Z,536.00
2023-02-02T08:25:29.085Z,516.00
2023-02-02T08:26:29.074Z,535.00
2023-02-02T08:27:28.997Z,514.00
2023-02-02T08:28:28.971Z,559.00
2023-02-02T08:29:28.962Z,566.00
2023-02-02T08:30:28.895Z,614.00
2023-02-02T08:31:28.866Z,624.00
2023-02-02T08:32:28.888Z,639.00
2023-02-02T08:33:28.880Z,640.00
2023-02-02T08:34:28.940Z,641.00
2023-02-02T08:35:28.837Z,666.00
2023-02-02T08:36:28.819Z,688.00
2023-02-02T08:37:28.886Z,708.00
2023-02-02T08:38:28.852Z,703.00
2023-02-02T08:39:28.913Z,688.00
2023-02-02T08:40:28.843Z,674.00
2023-02-02T08:41:28.824Z,664.00
2023-02-02T08:42:28.802Z,695.00
2023-02-02T08:43:28.785Z,731.00
2023-02-02T08:45:59.517Z,748.00
2023-02-02T08:46:08.575Z,735.00
2023-02-02T08:46:28.838Z,709.00
2023-02-02T08:47:28.755Z,688.00
2023-02-02T08:48:28.735Z,690.00
2023-02-02T08:49:28.782Z,708.00
2023-02-02T08:50:28.731Z,742.00
2023-02-02T08:51:28.690Z,779.00
2023-02-02T08:52:28.652Z,818.00
2023-02-02T08:53:28.603Z,833.00
2023-02-02T08:54:28.603Z,837.00
2023-02-02T08:55:28.732Z,837.00
2023-02-02T08:56:28.535Z,828.00
2023-02-02T08:57:28.558Z,823.00
2023-02-02T08:58:28.601Z,832.00
2023-02-02T08:59:28.562Z,841.00
2023-02-02T09:00:28.691Z,857.00
2023-02-02T09:01:28.616Z,844.00
2023-02-02T09:02:28.697Z,817.00
2023-02-02T09:03:28.644Z,836.00
2023-02-02T09:04:28.683Z,868.00
2023-02-02T09:05:28.566Z,894.00
2023-02-02T09:06:28.519Z,898.00
2023-02-02T09:07:28.455Z,906.00
2023-02-02T09:08:28.499Z,907.00
2023-02-02T09:09:28.472Z,923.00
2023-02-02T09:10:28.394Z,917.00
2023-02-02T09:11:28.548Z,935.00
2023-02-02T09:12:28.448Z,987.00
2023-02-02T09:13:28.438Z,1037.00
2023-02-02T09:14:28.445Z,1055.00
2023-02-02T09:15:28.420Z,1060.00
2023-02-02T09:16:28.564Z,1073.00
2023-02-02T09:17:28.442Z,1086.00
2023-02-02T09:18:28.454Z,1073.00
2023-02-02T09:19:28.371Z,1109.00
2023-02-02T09:20:28.362Z,1163.00
2023-02-02T09:21:28.352Z,1201.00
2023-02-02T09:22:29.004Z,1265.00
2023-02-02T09:23:28.394Z,1353.00
2023-02-02T09:24:28.374Z,1450.00
2023-02-02T09:25:28.285Z,1504.00
2023-02-02T09:26:28.384Z,1449.00
2023-02-02T09:27:28.293Z,1418.00
2023-02-02T09:28:28.275Z,1359.00
2023-02-02T09:29:28.251Z,1374.00
2023-02-02T09:30:28.312Z,1383.00
2023-02-02T09:31:28.323Z,1437.00
2023-02-02T09:32:28.245Z,1529.00
2023-02-02T09:33:28.176Z,1670.00
2023-02-02T09:34:28.273Z,1748.00
2023-02-02T09:35:28.157Z,1715.00
2023-02-02T09:36:28.159Z,1671.00
2023-02-02T09:37:28.138Z,1634.00
2023-02-02T09:38:28.124Z,1631.00
2023-02-02T09:39:28.194Z,1635.00
2023-02-02T09:40:28.157Z,1645.00
2023-02-02T09:41:28.134Z,1649.00
2023-02-02T09:42:28.108Z,1640.00
2023-02-02T09:43:28.171Z,1640.00
2023-02-02T09:44:27.918Z,1649.00
2023-02-02T09:45:28.300Z,1654.00
2023-02-02T09:46:28.068Z,1673.00
2023-02-02T09:47:28.126Z,1703.00
2023-02-02T09:48:28.018Z,1727.00
2023-02-02T09:49:28.070Z,1730.00
2023-02-02T09:50:28.022Z,1736.00
2023-02-02T09:51:27.978Z,1681.00
2023-02-02T09:52:28.042Z,1608.00
2023-02-02T09:53:28.004Z,1575.00
2023-02-02T09:54:28.113Z,1541.00
2023-02-02T09:55:28.063Z,1510.00
2023-02-02T09:56:28.035Z,1494.00
2023-02-02T09:57:27.999Z,1480.00
2023-02-02T09:58:27.977Z,1510.00
2023-02-02T09:59:27.934Z,1505.00
2023-02-02T10:00:27.992Z,1519.00
2023-02-02T10:01:28.041Z,1546.00
2023-02-02T10:02:27.953Z,1559.00
2023-02-02T10:03:27.915Z,1619.00
2023-02-02T10:04:27.860Z,1584.00
2023-02-02T10:05:27.894Z,1579.00
2023-02-02T10:06:27.916Z,1578.00
2023-02-02T10:07:27.817Z,1545.00
2023-02-02T10:08:34.735Z,1494.00
2023-02-02T10:09:27.834Z,1502.00
2023-02-02T10:10:27.831Z,1537.00
2023-02-02T10:11:27.840Z,1611.00
2023-02-02T10:12:27.748Z,1658.00
2023-02-02T10:13:27.731Z,1574.00
2023-02-02T10:14:27.791Z,1454.00
2023-02-02T10:15:28.004Z,1376.00
2023-02-02T10:16:27.756Z,1352.00
2023-02-02T10:17:27.759Z,1349.00
2023-02-02T10:18:27.673Z,1349.00
2023-02-02T10:19:27.659Z,1328.00
2023-02-02T10:20:27.973Z,1364.00
2023-02-02T10:21:27.636Z,1404.00
2023-02-02T10:22:27.775Z,1407.00
2023-02-02T10:23:27.684Z,1461.00
2023-02-02T10:24:27.666Z,1514.00
2023-02-02T10:25:27.668Z,1510.00
2023-02-02T10:26:27.674Z,1473.00
2023-02-02T10:27:27.702Z,1449.00
2023-02-02T10:28:27.613Z,1460.00
2023-02-02T10:29:30.837Z,1491.00
2023-02-02T10:30:27.828Z,1487.00
2023-02-02T10:31:27.726Z,1494.00
2023-02-02T10:32:27.593Z,1494.00
2023-02-02T10:33:27.522Z,1501.00
2023-02-02T10:34:27.541Z,1511.00
2023-02-02T10:35:27.618Z,1530.00
2023-02-02T10:36:27.526Z,1469.00
2023-02-02T10:37:27.600Z,1457.00
2023-02-02T10:38:27.510Z,1460.00
2023-02-02T10:39:27.579Z,1537.00
2023-02-02T10:40:27.822Z,1601.00
2023-02-02T10:41:27.469Z,1650.00
2023-02-02T10:42:27.450Z,1657.00
2023-02-02T10:43:27.521Z,1643.00
2023-02-02T10:44:27.454Z,1626.00
2023-02-02T10:45:27.441Z,1587.00
2023-02-02T10:46:27.297Z,1571.00
2023-02-02T10:47:27.408Z,1521.00
2023-02-02T10:48:27.436Z,1577.00
2023-02-02T10:49:27.531Z,1646.00
2023-02-02T10:50:27.795Z,1708.00
2023-02-02T10:51:27.360Z,1738.00
2023-02-02T10:52:27.351Z,1744.00
2023-02-02T10:53:27.344Z,1782.00
2023-02-02T10:54:27.420Z,1853.00
2023-02-02T10:55:27.415Z,1920.00
2023-02-02T10:56:27.312Z,1967.00
2023-02-02T10:57:27.289Z,2032.00
2023-02-02T10:58:27.266Z,2075.00
2023-02-02T10:59:27.395Z,2106.00
2023-02-02T11:00:27.676Z,2140.00
2023-02-02T11:01:27.350Z,2146.00
2023-02-02T11:02:27.259Z,2196.00
2023-02-02T11:03:27.258Z,2190.00
2023-02-02T11:04:27.212Z,2158.00
2023-02-02T11:05:27.402Z,2163.00
2023-02-02T11:06:27.272Z,2192.00
2023-02-02T11:07:27.371Z,2209.00
2023-02-02T11:08:27.227Z,2254.00
2023-02-02T11:09:27.213Z,2251.00
2023-02-02T11:10:27.451Z,2284.00
2023-02-02T11:11:27.208Z,2306.00
2023-02-02T11:12:27.133Z,2384.00
2023-02-02T11:13:27.134Z,2492.00
2023-02-02T11:14:27.113Z,2538.00
2023-02-02T11:15:27.122Z,2561.00
2023-02-02T11:16:38.787Z,2516.00
2023-02-02T11:17:27.093Z,2436.00
2023-02-02T11:18:27.081Z,2431.00
2023-02-02T11:19:27.070Z,2507.00
2023-02-02T11:20:27.271Z,2489.00
2023-02-02T11:21:27.157Z,2370.00
2023-02-02T11:22:27.076Z,2295.00
2023-02-02T11:23:27.000Z,2258.00
2023-02-02T11:24:26.860Z,2287.00
2023-02-02T11:25:26.996Z,2263.00
2023-02-02T11:26:27.106Z,2229.00
2023-02-02T11:27:27.053Z,2272.00
2023-02-02T11:28:26.954Z,2409.00
2023-02-02T11:29:26.942Z,2549.00
2023-02-02T11:30:27.167Z,2631.00
2023-02-02T11:31:27.104Z,2582.00
2023-02-02T11:32:27.013Z,2499.00
2023-02-02T11:33:26.940Z,2555.00
2023-02-02T11:34:26.977Z,2682.00
2023-02-02T11:35:26.819Z,2834.00
2023-02-02T11:36:26.820Z,2891.00
2023-02-02T11:37:26.805Z,2934.00
2023-02-02T11:38:26.957Z,3060.00
2023-02-02T11:39:26.723Z,3180.00
2023-02-02T11:40:27.205Z,3234.00
2023-02-02T11:41:26.783Z,3308.00
2023-02-02T11:42:26.776Z,3420.00
2023-02-02T11:43:26.929Z,3514.00
2023-02-02T11:44:26.771Z,3538.00
2023-02-02T11:45:26.775Z,3585.00
2023-02-02T11:46:26.849Z,3700.00
2023-02-02T11:47:26.798Z,3661.00
2023-02-02T11:48:26.914Z,3506.00
2023-02-02T11:49:26.682Z,3426.00
2023-02-02T11:50:27.045Z,3306.00
2023-02-02T11:51:27.682Z,3157.00
2023-02-02T11:52:26.764Z,3048.00
2023-02-02T11:53:26.754Z,3086.00
2023-02-02T11:54:26.734Z,3047.00
2023-02-02T11:55:26.764Z,2967.00
2023-02-02T11:56:26.742Z,2990.00
2023-02-02T11:57:26.714Z,3173.00
2023-02-02T11:58:26.714Z,3236.00
2023-02-02T11:59:26.666Z,3315.00
2023-02-02T12:00:27.245Z,3330.00
2023-02-02T12:01:26.648Z,3367.00
2023-02-02T12:02:26.704Z,3431.00
2023-02-02T12:03:26.537Z,3353.00
2023-02-02T12:04:26.808Z,3191.00
2023-02-02T12:05:26.685Z,3077.00
2023-02-02T12:06:26.499Z,3026.00
2023-02-02T12:07:26.540Z,3151.00
2023-02-02T12:08:26.489Z,3193.00
2023-02-02T12:09:26.615Z,3225.00
2023-02-02T12:10:26.831Z,3502.00
2023-02-02T12:11:26.513Z,3862.00
2023-02-02T12:12:26.621Z,3898.00
2023-02-02T12:13:26.492Z,4138.00
2023-02-02T12:14:26.574Z,4556.00
2023-02-02T12:15:26.511Z,4622.00
2023-02-02T12:16:26.519Z,4471.00
2023-02-02T12:17:26.489Z,4331.00
2023-02-02T12:18:26.488Z,4188.00
2023-02-02T12:19:26.435Z,4319.00
2023-02-02T12:20:27.008Z,4518.00
2023-02-02T12:21:26.448Z,4119.00
2023-02-02T12:22:26.388Z,3689.00
2023-02-02T12:23:26.381Z,3467.00
2023-02-02T12:24:26.380Z,3399.00
2023-02-02T12:25:26.769Z,3285.00
2023-02-02T12:26:26.443Z,3251.00
2023-02-02T12:27:26.396Z,3282.00
2023-02-02T12:28:26.322Z,3357.00
2023-02-02T12:29:26.174Z,3321.00
2023-02-02T12:30:26.796Z,3174.00
2023-02-02T12:31:26.463Z,2941.00
2023-02-02T12:32:26.383Z,2840.00
2023-02-02T12:33:26.319Z,2799.00
2023-02-02T12:34:26.313Z,2786.00
2023-02-02T12:35:26.280Z,2767.00
2023-02-02T12:36:26.381Z,2754.00
2023-02-02T12:37:26.227Z,2824.00
2023-02-02T12:38:26.249Z,2879.00
2023-02-02T12:39:26.279Z,2902.00
2023-02-02T12:40:26.477Z,2953.00
2023-02-02T12:41:26.207Z,3027.00
2023-02-02T12:42:26.231Z,3205.00
2023-02-02T12:43:26.144Z,3012.00
2023-02-02T12:44:26.226Z,2679.00
2023-02-02T12:45:26.204Z,2767.00
2023-02-02T12:46:25.980Z,2960.00
2023-02-02T12:47:26.182Z,3055.00
2023-02-02T12:48:26.085Z,3147.00